sensor_id;sensor_type;location;lat;lon;timestamp;P1;durP1;ratioP1;P2;durP2;ratioP2
55489;SDS011;44029;52.956;4.772;2023-11-22T00:01:59;2.03;;;1.40;;
55489;SDS011;44029;52.956;4.772;2023-11-22T00:04:24;5.03;;;1.25;;
55489;SDS011;44029;52.956;4.772;2023-11-22T00:06:50;1.50;;;1.40;;
55489;SDS011;44029;52.956;4.772;2023-11-22T00:09:15;4.70;;;2.72;;
55489;SDS011;44029;52.956;4.772;2023-11-22T00:11:40;6.10;;;2.08;;
55489;SDS011;44029;52.956;4.772;2023-11-22T00:14:06;1.88;;;1.63;;
55489;SDS011;44029;52.956;4.772;2023-11-22T00:16:31;2.42;;;1.70;;
55489;SDS011;44029;52.956;4.772;2023-11-22T00:18:57;5.22;;;3.22;;
55489;SDS011;44029;52.956;4.772;2023-11-22T00:21:22;3.97;;;1.80;;
55489;SDS011;44029;52.956;4.772;2023-11-22T00:23:48;2.42;;;1.70;;
55489;SDS011;44029;52.956;4.772;2023-11-22T00:26:13;2.75;;;1.85;;
55489;SDS011;44029;52.956;4.772;2023-11-22T00:28:40;1.92;;;1.80;;
55489;SDS011;44029;52.956;4.772;2023-11-22T00:31:05;3.17;;;1.98;;
55489;SDS011;44029;52.956;4.772;2023-11-22T00:33:31;4.45;;;2.50;;
55489;SDS011;44029;52.956;4.772;2023-11-22T00:35:56;3.65;;;2.50;;
55489;SDS011;44029;52.956;4.772;2023-11-22T00:38:23;3.10;;;2.50;;
55489;SDS011;44029;52.956;4.772;2023-11-22T00:40:49;3.38;;;2.17;;
55489;SDS011;44029;52.956;4.772;2023-11-22T00:43:15;8.20;;;2.58;;
55489;SDS011;44029;52.956;4.772;2023-11-22T00:45:42;4.50;;;2.55;;
55489;SDS011;44029;52.956;4.772;2023-11-22T00:48:07;4.20;;;2.75;;
55489;SDS011;44029;52.956;4.772;2023-11-22T00:50:33;9.32;;;3.00;;
55489;SDS011;44029;52.956;4.772;2023-11-22T00:52:58;7.95;;;3.50;;
55489;SDS011;44029;52.956;4.772;2023-11-22T00:55:23;3.88;;;2.60;;
55489;SDS011;44029;52.956;4.772;2023-11-22T00:57:49;4.45;;;2.70;;
55489;SDS011;44029;52.956;4.772;2023-11-22T01:00:14;6.45;;;2.88;;
55489;SDS011;44029;52.956;4.772;2023-11-22T01:02:40;5.78;;;2.90;;
55489;SDS011;44029;52.956;4.772;2023-11-22T01:05:06;5.07;;;2.90;;
55489;SDS011;44029;52.956;4.772;2023-11-22T01:07:35;9.57;;;4.20;;
55489;SDS011;44029;52.956;4.772;2023-11-22T01:10:01;8.07;;;4.45;;
55489;SDS011;44029;52.956;4.772;2023-11-22T01:12:27;14.18;;;6.22;;
55489;SDS011;44029;52.956;4.772;2023-11-22T01:14:52;10.98;;;6.45;;
55489;SDS011;44029;52.956;4.772;2023-11-22T01:17:17;12.68;;;4.65;;
55489;SDS011;44029;52.956;4.772;2023-11-22T01:19:43;6.13;;;4.07;;
55489;SDS011;44029;52.956;4.772;2023-11-22T01:22:08;17.55;;;7.53;;
55489;SDS011;44029;52.956;4.772;2023-11-22T01:24:34;8.85;;;5.00;;
55489;SDS011;44029;52.956;4.772;2023-11-22T01:26:59;5.65;;;3.40;;
55489;SDS011;44029;52.956;4.772;2023-11-22T01:29:24;7.35;;;4.07;;
55489;SDS011;44029;52.956;4.772;2023-11-22T01:31:49;5.88;;;3.67;;
55489;SDS011;44029;52.956;4.772;2023-11-22T01:34:15;4.55;;;3.28;;
55489;SDS011;44029;52.956;4.772;2023-11-22T01:36:43;6.85;;;3.08;;
55489;SDS011;44029;52.956;4.772;2023-11-22T01:39:10;5.70;;;3.53;;
55489;SDS011;44029;52.956;4.772;2023-11-22T01:41:37;5.80;;;3.90;;
55489;SDS011;44029;52.956;4.772;2023-11-22T01:44:02;5.28;;;3.17;;
55489;SDS011;44029;52.956;4.772;2023-11-22T01:46:28;5.15;;;3.55;;
55489;SDS011;44029;52.956;4.772;2023-11-22T01:48:54;6.13;;;3.38;;
55489;SDS011;44029;52.956;4.772;2023-11-22T01:51:23;5.78;;;3.70;;
55489;SDS011;44029;52.956;4.772;2023-11-22T01:53:50;6.15;;;3.53;;
55489;SDS011;44029;52.956;4.772;2023-11-22T01:56:20;8.20;;;3.70;;
55489;SDS011;44029;52.956;4.772;2023-11-22T01:58:47;5.43;;;3.35;;
55489;SDS011;44029;52.956;4.772;2023-11-22T02:01:14;7.65;;;4.22;;
55489;SDS011;44029;52.956;4.772;2023-11-22T02:03:40;8.95;;;4.53;;
55489;SDS011;44029;52.956;4.772;2023-11-22T02:06:06;8.77;;;4.60;;
55489;SDS011;44029;52.956;4.772;2023-11-22T02:08:32;10.65;;;4.53;;
55489;SDS011;44029;52.956;4.772;2023-11-22T02:10:58;10.70;;;3.92;;
55489;SDS011;44029;52.956;4.772;2023-11-22T02:13:24;11.65;;;4.18;;
55489;SDS011;44029;52.956;4.772;2023-11-22T02:15:49;9.38;;;4.30;;
55489;SDS011;44029;52.956;4.772;2023-11-22T02:18:15;6.07;;;3.80;;
55489;SDS011;44029;52.956;4.772;2023-11-22T02:20:40;6.20;;;3.33;;
55489;SDS011;44029;52.956;4.772;2023-11-22T02:23:10;6.68;;;3.42;;
55489;SDS011;44029;52.956;4.772;2023-11-22T02:25:36;8.00;;;3.80;;
55489;SDS011;44029;52.956;4.772;2023-11-22T02:28:01;9.15;;;3.97;;
55489;SDS011;44029;52.956;4.772;2023-11-22T02:30:29;7.18;;;3.95;;
55489;SDS011;44029;52.956;4.772;2023-11-22T02:32:55;6.72;;;3.78;;
55489;SDS011;44029;52.956;4.772;2023-11-22T02:35:20;6.50;;;4.20;;
55489;SDS011;44029;52.956;4.772;2023-11-22T02:37:45;6.55;;;3.55;;
55489;SDS011;44029;52.956;4.772;2023-11-22T02:40:17;7.78;;;4.25;;
55489;SDS011;44029;52.956;4.772;2023-11-22T02:42:45;9.57;;;3.90;;
55489;SDS011;44029;52.956;4.772;2023-11-22T02:45:11;6.82;;;3.50;;
55489;SDS011;44029;52.956;4.772;2023-11-22T02:47:39;7.38;;;3.67;;
55489;SDS011;44029;52.956;4.772;2023-11-22T02:50:05;8.48;;;4.05;;
55489;SDS011;44029;52.956;4.772;2023-11-22T02:52:30;8.68;;;4.55;;
55489;SDS011;44029;52.956;4.772;2023-11-22T02:54:56;8.25;;;4.50;;
55489;SDS011;44029;52.956;4.772;2023-11-22T02:57:21;10.55;;;5.03;;
55489;SDS011;44029;52.956;4.772;2023-11-22T02:59:47;13.30;;;5.72;;
55489;SDS011;44029;52.956;4.772;2023-11-22T03:02:12;7.43;;;4.70;;
55489;SDS011;44029;52.956;4.772;2023-11-22T03:04:37;13.82;;;4.82;;
55489;SDS011;44029;52.956;4.772;2023-11-22T03:07:03;9.25;;;4.40;;
55489;SDS011;44029;52.956;4.772;2023-11-22T03:09:31;8.63;;;4.30;;
55489;SDS011;44029;52.956;4.772;2023-11-22T03:11:57;8.93;;;4.85;;
55489;SDS011;44029;52.956;4.772;2023-11-22T03:14:22;8.68;;;4.70;;
55489;SDS011;44029;52.956;4.772;2023-11-22T03:16:48;8.57;;;4.57;;
55489;SDS011;44029;52.956;4.772;2023-11-22T03:19:14;11.10;;;4.47;;
55489;SDS011;44029;52.956;4.772;2023-11-22T03:21:39;9.43;;;4.22;;
55489;SDS011;44029;52.956;4.772;2023-11-22T03:24:06;6.40;;;3.95;;
55489;SDS011;44029;52.956;4.772;2023-11-22T03:26:33;7.18;;;4.28;;
55489;SDS011;44029;52.956;4.772;2023-11-22T03:28:59;10.05;;;4.85;;
55489;SDS011;44029;52.956;4.772;2023-11-22T03:31:25;10.48;;;5.30;;
55489;SDS011;44029;52.956;4.772;2023-11-22T03:33:51;7.88;;;4.35;;
55489;SDS011;44029;52.956;4.772;2023-11-22T03:36:16;10.32;;;4.53;;
55489;SDS011;44029;52.956;4.772;2023-11-22T03:38:42;11.23;;;5.28;;
55489;SDS011;44029;52.956;4.772;2023-11-22T03:41:07;7.78;;;4.65;;
55489;SDS011;44029;52.956;4.772;2023-11-22T03:43:32;8.30;;;5.10;;
55489;SDS011;44029;52.956;4.772;2023-11-22T03:45:57;8.18;;;4.45;;
55489;SDS011;44029;52.956;4.772;2023-11-22T03:48:23;8.02;;;5.03;;
55489;SDS011;44029;52.956;4.772;2023-11-22T03:50:49;8.32;;;4.50;;
55489;SDS011;44029;52.956;4.772;2023-11-22T03:53:15;12.85;;;6.07;;
55489;SDS011;44029;52.956;4.772;2023-11-22T03:55:40;9.05;;;4.95;;
55489;SDS011;44029;52.956;4.772;2023-11-22T03:58:05;8.95;;;5.03;;
55489;SDS011;44029;52.956;4.772;2023-11-22T04:00:31;11.93;;;5.38;;
55489;SDS011;44029;52.956;4.772;2023-11-22T04:02:57;9.80;;;5.60;;
55489;SDS011;44029;52.956;4.772;2023-11-22T04:05:25;10.88;;;5.82;;
55489;SDS011;44029;52.956;4.772;2023-11-22T04:07:51;10.20;;;5.18;;
55489;SDS011;44029;52.956;4.772;2023-11-22T04:10:16;12.65;;;5.30;;
55489;SDS011;44029;52.956;4.772;2023-11-22T04:12:42;9.95;;;5.63;;
55489;SDS011;44029;52.956;4.772;2023-11-22T04:15:07;9.50;;;5.63;;
55489;SDS011;44029;52.956;4.772;2023-11-22T04:17:36;10.25;;;5.32;;
55489;SDS011;44029;52.956;4.772;2023-11-22T04:20:05;11.13;;;6.22;;
55489;SDS011;44029;52.956;4.772;2023-11-22T04:22:34;10.63;;;5.65;;
55489;SDS011;44029;52.956;4.772;2023-11-22T04:25:00;17.02;;;6.43;;
55489;SDS011;44029;52.956;4.772;2023-11-22T04:27:27;13.35;;;5.75;;
55489;SDS011;44029;52.956;4.772;2023-11-22T04:29:52;10.38;;;5.45;;
55489;SDS011;44029;52.956;4.772;2023-11-22T04:32:17;11.10;;;5.57;;
55489;SDS011;44029;52.956;4.772;2023-11-22T04:34:43;12.70;;;5.70;;
55489;SDS011;44029;52.956;4.772;2023-11-22T04:37:08;16.35;;;6.15;;
55489;SDS011;44029;52.956;4.772;2023-11-22T04:39:34;12.48;;;5.68;;
55489;SDS011;44029;52.956;4.772;2023-11-22T04:41:59;11.27;;;5.38;;
55489;SDS011;44029;52.956;4.772;2023-11-22T04:44:25;13.95;;;6.35;;
55489;SDS011;44029;52.956;4.772;2023-11-22T04:46:51;12.73;;;6.13;;
55489;SDS011;44029;52.956;4.772;2023-11-22T04:49:16;14.63;;;6.85;;
55489;SDS011;44029;52.956;4.772;2023-11-22T04:51:42;14.38;;;6.38;;
55489;SDS011;44029;52.956;4.772;2023-11-22T04:54:09;11.65;;;6.93;;
55489;SDS011;44029;52.956;4.772;2023-11-22T04:56:34;15.35;;;7.03;;
55489;SDS011;44029;52.956;4.772;2023-11-22T04:59:00;14.43;;;7.07;;
55489;SDS011;44029;52.956;4.772;2023-11-22T05:01:30;15.23;;;7.43;;
55489;SDS011;44029;52.956;4.772;2023-11-22T05:03:57;9.60;;;6.03;;
55489;SDS011;44029;52.956;4.772;2023-11-22T05:06:23;13.18;;;6.65;;
55489;SDS011;44029;52.956;4.772;2023-11-22T05:08:49;15.27;;;7.57;;
55489;SDS011;44029;52.956;4.772;2023-11-22T05:11:14;10.73;;;5.82;;
55489;SDS011;44029;52.956;4.772;2023-11-22T05:13:41;13.88;;;6.75;;
55489;SDS011;44029;52.956;4.772;2023-11-22T05:16:08;10.75;;;5.05;;
55489;SDS011;44029;52.956;4.772;2023-11-22T05:18:33;13.60;;;6.28;;
55489;SDS011;44029;52.956;4.772;2023-11-22T05:20:59;15.73;;;7.20;;
55489;SDS011;44029;52.956;4.772;2023-11-22T05:23:24;10.60;;;6.68;;
55489;SDS011;44029;52.956;4.772;2023-11-22T05:25:50;12.68;;;6.18;;
55489;SDS011;44029;52.956;4.772;2023-11-22T05:28:15;15.05;;;6.72;;
55489;SDS011;44029;52.956;4.772;2023-11-22T05:30:41;14.80;;;6.97;;
55489;SDS011;44029;52.956;4.772;2023-11-22T05:33:06;14.30;;;6.35;;
55489;SDS011;44029;52.956;4.772;2023-11-22T05:35:32;13.65;;;6.13;;
55489;SDS011;44029;52.956;4.772;2023-11-22T05:37:58;10.63;;;5.82;;
55489;SDS011;44029;52.956;4.772;2023-11-22T05:40:23;11.73;;;6.45;;
55489;SDS011;44029;52.956;4.772;2023-11-22T05:42:49;16.00;;;8.25;;
55489;SDS011;44029;52.956;4.772;2023-11-22T05:45:14;11.88;;;6.57;;
55489;SDS011;44029;52.956;4.772;2023-11-22T05:47:39;14.30;;;6.78;;
55489;SDS011;44029;52.956;4.772;2023-11-22T05:50:07;16.02;;;7.28;;
55489;SDS011;44029;52.956;4.772;2023-11-22T05:52:32;14.65;;;7.20;;
55489;SDS011;44029;52.956;4.772;2023-11-22T05:54:58;12.75;;;6.07;;
55489;SDS011;44029;52.956;4.772;2023-11-22T05:57:23;17.05;;;7.45;;
55489;SDS011;44029;52.956;4.772;2023-11-22T05:59:48;16.63;;;7.65;;
55489;SDS011;44029;52.956;4.772;2023-11-22T06:02:14;13.05;;;7.07;;
55489;SDS011;44029;52.956;4.772;2023-11-22T06:04:39;13.45;;;6.85;;
55489;SDS011;44029;52.956;4.772;2023-11-22T06:07:05;13.48;;;7.07;;
55489;SDS011;44029;52.956;4.772;2023-11-22T06:09:30;17.75;;;7.32;;
55489;SDS011;44029;52.956;4.772;2023-11-22T06:11:55;13.80;;;6.95;;
55489;SDS011;44029;52.956;4.772;2023-11-22T06:14:21;13.85;;;6.82;;
55489;SDS011;44029;52.956;4.772;2023-11-22T06:16:46;15.95;;;7.95;;
55489;SDS011;44029;52.956;4.772;2023-11-22T06:19:12;17.80;;;7.65;;
55489;SDS011;44029;52.956;4.772;2023-11-22T06:21:37;16.67;;;7.20;;
55489;SDS011;44029;52.956;4.772;2023-11-22T06:24:04;15.93;;;7.38;;
55489;SDS011;44029;52.956;4.772;2023-11-22T06:26:33;14.20;;;7.53;;
55489;SDS011;44029;52.956;4.772;2023-11-22T06:28:59;12.90;;;7.03;;
55489;SDS011;44029;52.956;4.772;2023-11-22T06:31:25;15.20;;;7.55;;
55489;SDS011;44029;52.956;4.772;2023-11-22T06:33:50;16.55;;;8.07;;
55489;SDS011;44029;52.956;4.772;2023-11-22T06:36:17;15.32;;;7.93;;
55489;SDS011;44029;52.956;4.772;2023-11-22T06:38:43;14.13;;;6.68;;
55489;SDS011;44029;52.956;4.772;2023-11-22T06:41:10;21.30;;;7.82;;
55489;SDS011;44029;52.956;4.772;2023-11-22T06:43:36;13.98;;;7.35;;
55489;SDS011;44029;52.956;4.772;2023-11-22T06:46:01;12.38;;;6.95;;
55489;SDS011;44029;52.956;4.772;2023-11-22T06:48:30;16.67;;;7.40;;
55489;SDS011;44029;52.956;4.772;2023-11-22T06:50:55;15.82;;;7.97;;
55489;SDS011;44029;52.956;4.772;2023-11-22T06:53:21;16.13;;;7.10;;
55489;SDS011;44029;52.956;4.772;2023-11-22T06:55:46;15.32;;;7.40;;
55489;SDS011;44029;52.956;4.772;2023-11-22T06:58:12;15.05;;;7.28;;
55489;SDS011;44029;52.956;4.772;2023-11-22T07:00:38;18.60;;;7.97;;
55489;SDS011;44029;52.956;4.772;2023-11-22T07:03:05;12.20;;;7.22;;
55489;SDS011;44029;52.956;4.772;2023-11-22T07:05:30;14.10;;;6.97;;
55489;SDS011;44029;52.956;4.772;2023-11-22T07:07:56;14.80;;;7.20;;
55489;SDS011;44029;52.956;4.772;2023-11-22T07:10:21;13.57;;;7.18;;
55489;SDS011;44029;52.956;4.772;2023-11-22T07:12:47;14.35;;;7.10;;
55489;SDS011;44029;52.956;4.772;2023-11-22T07:15:13;12.55;;;6.97;;
55489;SDS011;44029;52.956;4.772;2023-11-22T07:17:38;16.98;;;8.55;;
55489;SDS011;44029;52.956;4.772;2023-11-22T07:20:04;16.58;;;8.15;;
55489;SDS011;44029;52.956;4.772;2023-11-22T07:22:34;12.73;;;6.97;;
55489;SDS011;44029;52.956;4.772;2023-11-22T07:25:00;18.27;;;7.80;;
55489;SDS011;44029;52.956;4.772;2023-11-22T07:27:27;20.80;;;6.47;;
55489;SDS011;44029;52.956;4.772;2023-11-22T07:29:53;18.63;;;7.97;;
55489;SDS011;44029;52.956;4.772;2023-11-22T07:32:19;13.98;;;6.32;;
55489;SDS011;44029;52.956;4.772;2023-11-22T07:34:47;14.55;;;7.00;;
55489;SDS011;44029;52.956;4.772;2023-11-22T07:37:12;15.55;;;6.90;;
55489;SDS011;44029;52.956;4.772;2023-11-22T07:39:39;20.90;;;7.88;;
55489;SDS011;44029;52.956;4.772;2023-11-22T07:42:05;15.20;;;7.40;;
55489;SDS011;44029;52.956;4.772;2023-11-22T07:44:34;19.00;;;7.95;;
55489;SDS011;44029;52.956;4.772;2023-11-22T07:47:02;10.98;;;6.22;;
55489;SDS011;44029;52.956;4.772;2023-11-22T07:49:31;15.77;;;7.35;;
55489;SDS011;44029;52.956;4.772;2023-11-22T07:51:56;15.27;;;7.00;;
55489;SDS011;44029;52.956;4.772;2023-11-22T07:54:22;12.80;;;7.00;;
55489;SDS011;44029;52.956;4.772;2023-11-22T07:56:50;16.40;;;7.57;;
55489;SDS011;44029;52.956;4.772;2023-11-22T07:59:17;12.18;;;6.78;;
55489;SDS011;44029;52.956;4.772;2023-11-22T08:01:43;10.35;;;5.65;;
55489;SDS011;44029;52.956;4.772;2023-11-22T08:04:09;11.32;;;5.20;;
55489;SDS011;44029;52.956;4.772;2023-11-22T08:06:34;16.35;;;6.38;;
55489;SDS011;44029;52.956;4.772;2023-11-22T08:09:00;23.27;;;6.70;;
55489;SDS011;44029;52.956;4.772;2023-11-22T08:11:29;14.15;;;6.95;;
55489;SDS011;44029;52.956;4.772;2023-11-22T08:13:56;16.70;;;5.82;;
55489;SDS011;44029;52.956;4.772;2023-11-22T08:16:24;14.13;;;7.40;;
55489;SDS011;44029;52.956;4.772;2023-11-22T08:18:49;14.00;;;7.00;;
55489;SDS011;44029;52.956;4.772;2023-11-22T08:21:15;13.45;;;6.40;;
55489;SDS011;44029;52.956;4.772;2023-11-22T08:23:41;14.55;;;6.97;;
55489;SDS011;44029;52.956;4.772;2023-11-22T08:26:06;15.73;;;7.10;;
55489;SDS011;44029;52.956;4.772;2023-11-22T08:28:33;19.58;;;7.47;;
55489;SDS011;44029;52.956;4.772;2023-11-22T08:30:59;13.07;;;6.65;;
55489;SDS011;44029;52.956;4.772;2023-11-22T08:33:25;16.48;;;7.45;;
55489;SDS011;44029;52.956;4.772;2023-11-22T08:35:51;15.35;;;6.78;;
55489;SDS011;44029;52.956;4.772;2023-11-22T08:38:23;12.80;;;6.55;;
55489;SDS011;44029;52.956;4.772;2023-11-22T08:40:49;16.08;;;7.43;;
55489;SDS011;44029;52.956;4.772;2023-11-22T08:43:15;15.35;;;6.75;;
55489;SDS011;44029;52.956;4.772;2023-11-22T08:45:41;12.63;;;7.18;;
55489;SDS011;44029;52.956;4.772;2023-11-22T08:48:07;16.75;;;6.97;;
55489;SDS011;44029;52.956;4.772;2023-11-22T08:50:33;16.48;;;6.70;;
55489;SDS011;44029;52.956;4.772;2023-11-22T08:52:58;20.80;;;8.15;;
55489;SDS011;44029;52.956;4.772;2023-11-22T08:55:23;17.80;;;7.22;;
55489;SDS011;44029;52.956;4.772;2023-11-22T08:57:50;16.38;;;7.88;;
55489;SDS011;44029;52.956;4.772;2023-11-22T09:00:16;14.82;;;6.68;;
55489;SDS011;44029;52.956;4.772;2023-11-22T09:02:47;14.85;;;7.18;;
55489;SDS011;44029;52.956;4.772;2023-11-22T09:05:13;15.38;;;6.63;;
55489;SDS011;44029;52.956;4.772;2023-11-22T09:07:39;15.82;;;6.22;;
55489;SDS011;44029;52.956;4.772;2023-11-22T09:10:04;20.95;;;7.05;;
55489;SDS011;44029;52.956;4.772;2023-11-22T09:12:40;12.30;;;6.20;;
55489;SDS011;44029;52.956;4.772;2023-11-22T09:17:37;19.55;;;7.40;;
55489;SDS011;44029;52.956;4.772;2023-11-22T09:20:08;13.05;;;7.57;;
55489;SDS011;44029;52.956;4.772;2023-11-22T09:25:15;15.13;;;6.88;;
55489;SDS011;44029;52.956;4.772;2023-11-22T09:27:42;10.35;;;6.50;;
55489;SDS011;44029;52.956;4.772;2023-11-22T09:30:12;13.23;;;7.07;;
55489;SDS011;44029;52.956;4.772;2023-11-22T09:32:44;13.77;;;6.97;;
55489;SDS011;44029;52.956;4.772;2023-11-22T09:35:11;11.05;;;6.53;;
55489;SDS011;44029;52.956;4.772;2023-11-22T09:37:39;12.50;;;6.72;;
55489;SDS011;44029;52.956;4.772;2023-11-22T09:40:07;12.98;;;7.10;;
55489;SDS011;44029;52.956;4.772;2023-11-22T09:42:34;19.90;;;7.93;;
55489;SDS011;44029;52.956;4.772;2023-11-22T09:44:59;16.40;;;7.03;;
55489;SDS011;44029;52.956;4.772;2023-11-22T09:47:25;11.32;;;6.90;;
55489;SDS011;44029;52.956;4.772;2023-11-22T09:49:53;14.13;;;7.20;;
55489;SDS011;44029;52.956;4.772;2023-11-22T09:52:22;15.18;;;6.43;;
55489;SDS011;44029;52.956;4.772;2023-11-22T09:54:53;14.30;;;6.22;;
55489;SDS011;44029;52.956;4.772;2023-11-22T09:57:20;12.23;;;6.72;;
55489;SDS011;44029;52.956;4.772;2023-11-22T09:59:47;12.48;;;6.15;;
55489;SDS011;44029;52.956;4.772;2023-11-22T10:02:17;13.27;;;7.47;;
55489;SDS011;44029;52.956;4.772;2023-11-22T10:04:42;17.60;;;7.05;;
55489;SDS011;44029;52.956;4.772;2023-11-22T10:07:08;15.93;;;6.53;;
55489;SDS011;44029;52.956;4.772;2023-11-22T10:09:35;15.85;;;7.45;;
55489;SDS011;44029;52.956;4.772;2023-11-22T10:12:02;15.73;;;6.90;;
55489;SDS011;44029;52.956;4.772;2023-11-22T10:14:29;18.95;;;7.25;;
55489;SDS011;44029;52.956;4.772;2023-11-22T10:17:01;11.02;;;6.55;;
55489;SDS011;44029;52.956;4.772;2023-11-22T10:19:26;16.55;;;7.50;;
55489;SDS011;44029;52.956;4.772;2023-11-22T10:22:06;15.95;;;7.15;;
55489;SDS011;44029;52.956;4.772;2023-11-22T10:24:33;16.45;;;7.30;;
55489;SDS011;44029;52.956;4.772;2023-11-22T10:26:59;15.45;;;6.75;;
55489;SDS011;44029;52.956;4.772;2023-11-22T10:29:25;12.27;;;6.78;;
55489;SDS011;44029;52.956;4.772;2023-11-22T10:31:51;13.25;;;7.43;;
55489;SDS011;44029;52.956;4.772;2023-11-22T10:34:23;12.82;;;6.68;;
55489;SDS011;44029;52.956;4.772;2023-11-22T10:36:49;16.13;;;6.57;;
55489;SDS011;44029;52.956;4.772;2023-11-22T10:39:18;17.65;;;6.63;;
55489;SDS011;44029;52.956;4.772;2023-11-22T10:41:45;13.95;;;6.93;;
55489;SDS011;44029;52.956;4.772;2023-11-22T10:44:10;13.00;;;6.45;;
55489;SDS011;44029;52.956;4.772;2023-11-22T10:46:36;15.07;;;7.55;;
55489;SDS011;44029;52.956;4.772;2023-11-22T10:49:04;11.70;;;6.32;;
55489;SDS011;44029;52.956;4.772;2023-11-22T10:51:30;15.80;;;7.50;;
55489;SDS011;44029;52.956;4.772;2023-11-22T10:53:57;20.42;;;7.70;;
55489;SDS011;44029;52.956;4.772;2023-11-22T10:56:25;16.13;;;6.85;;
55489;SDS011;44029;52.956;4.772;2023-11-22T10:58:56;14.73;;;8.43;;
55489;SDS011;44029;52.956;4.772;2023-11-22T11:01:25;17.45;;;8.40;;
55489;SDS011;44029;52.956;4.772;2023-11-22T11:06:20;13.05;;;6.68;;
55489;SDS011;44029;52.956;4.772;2023-11-22T11:08:53;14.27;;;7.97;;
55489;SDS011;44029;52.956;4.772;2023-11-22T11:11:23;16.35;;;7.55;;
55489;SDS011;44029;52.956;4.772;2023-11-22T11:13:49;15.25;;;7.35;;
55489;SDS011;44029;52.956;4.772;2023-11-22T11:16:15;14.60;;;6.57;;
55489;SDS011;44029;52.956;4.772;2023-11-22T11:18:41;16.48;;;7.47;;
55489;SDS011;44029;52.956;4.772;2023-11-22T11:21:07;14.23;;;7.35;;
55489;SDS011;44029;52.956;4.772;2023-11-22T11:23:38;13.52;;;6.85;;
55489;SDS011;44029;52.956;4.772;2023-11-22T11:26:17;20.98;;;8.23;;
55489;SDS011;44029;52.956;4.772;2023-11-22T11:28:46;15.90;;;7.45;;
55489;SDS011;44029;52.956;4.772;2023-11-22T11:31:13;17.80;;;6.75;;
55489;SDS011;44029;52.956;4.772;2023-11-22T11:36:21;14.02;;;7.45;;
55489;SDS011;44029;52.956;4.772;2023-11-22T11:38:51;13.65;;;6.63;;
55489;SDS011;44029;52.956;4.772;2023-11-22T11:41:18;15.07;;;7.57;;
55489;SDS011;44029;52.956;4.772;2023-11-22T11:43:44;21.25;;;7.65;;
55489;SDS011;44029;52.956;4.772;2023-11-22T11:46:14;16.73;;;7.80;;
55489;SDS011;44029;52.956;4.772;2023-11-22T11:51:13;10.80;;;6.78;;
55489;SDS011;44029;52.956;4.772;2023-11-22T11:53:42;17.40;;;8.38;;
55489;SDS011;44029;52.956;4.772;2023-11-22T11:56:08;11.48;;;6.50;;
55489;SDS011;44029;52.956;4.772;2023-11-22T11:58:34;18.92;;;7.30;;
55489;SDS011;44029;52.956;4.772;2023-11-22T12:01:00;13.98;;;7.55;;
55489;SDS011;44029;52.956;4.772;2023-11-22T12:03:25;17.13;;;7.50;;
55489;SDS011;44029;52.956;4.772;2023-11-22T12:05:51;15.68;;;7.35;;
55489;SDS011;44029;52.956;4.772;2023-11-22T12:08:16;13.68;;;8.05;;
55489;SDS011;44029;52.956;4.772;2023-11-22T12:10:42;12.57;;;7.03;;
55489;SDS011;44029;52.956;4.772;2023-11-22T12:13:08;14.35;;;7.38;;
55489;SDS011;44029;52.956;4.772;2023-11-22T12:15:34;15.05;;;6.85;;
55489;SDS011;44029;52.956;4.772;2023-11-22T12:18:00;18.27;;;8.45;;
55489;SDS011;44029;52.956;4.772;2023-11-22T12:20:26;13.63;;;8.35;;
55489;SDS011;44029;52.956;4.772;2023-11-22T12:22:56;16.00;;;7.28;;
55489;SDS011;44029;52.956;4.772;2023-11-22T12:25:25;14.93;;;8.07;;
55489;SDS011;44029;52.956;4.772;2023-11-22T12:27:53;19.88;;;8.30;;
55489;SDS011;44029;52.956;4.772;2023-11-22T12:30:29;16.25;;;7.80;;
55489;SDS011;44029;52.956;4.772;2023-11-22T12:33:05;16.17;;;7.53;;
55489;SDS011;44029;52.956;4.772;2023-11-22T12:35:35;17.45;;;7.78;;
55489;SDS011;44029;52.956;4.772;2023-11-22T12:38:01;19.20;;;7.90;;
55489;SDS011;44029;52.956;4.772;2023-11-22T12:40:28;18.73;;;6.82;;
55489;SDS011;44029;52.956;4.772;2023-11-22T12:42:56;10.40;;;6.05;;
55489;SDS011;44029;52.956;4.772;2023-11-22T12:45:22;19.88;;;8.27;;
55489;SDS011;44029;52.956;4.772;2023-11-22T12:47:52;15.80;;;6.38;;
55489;SDS011;44029;52.956;4.772;2023-11-22T12:55:41;13.68;;;7.18;;
55489;SDS011;44029;52.956;4.772;2023-11-22T12:58:11;11.82;;;6.63;;
55489;SDS011;44029;52.956;4.772;2023-11-22T13:00:38;17.88;;;8.32;;
55489;SDS011;44029;52.956;4.772;2023-11-22T13:03:07;18.80;;;7.45;;
55489;SDS011;44029;52.956;4.772;2023-11-22T13:05:35;16.67;;;8.35;;
55489;SDS011;44029;52.956;4.772;2023-11-22T13:08:03;15.25;;;8.00;;
55489;SDS011;44029;52.956;4.772;2023-11-22T13:10:29;16.98;;;7.47;;
55489;SDS011;44029;52.956;4.772;2023-11-22T13:12:55;15.65;;;7.25;;
55489;SDS011;44029;52.956;4.772;2023-11-22T13:15:21;16.17;;;7.03;;
55489;SDS011;44029;52.956;4.772;2023-11-22T13:17:51;15.35;;;6.88;;
55489;SDS011;44029;52.956;4.772;2023-11-22T13:20:29;11.60;;;6.40;;
55489;SDS011;44029;52.956;4.772;2023-11-22T13:22:55;13.98;;;5.45;;
55489;SDS011;44029;52.956;4.772;2023-11-22T13:25:21;9.43;;;5.03;;
55489;SDS011;44029;52.956;4.772;2023-11-22T13:27:48;15.70;;;7.22;;
55489;SDS011;44029;52.956;4.772;2023-11-22T13:30:15;14.82;;;7.03;;
55489;SDS011;44029;52.956;4.772;2023-11-22T13:32:44;13.02;;;5.78;;
55489;SDS011;44029;52.956;4.772;2023-11-22T13:35:10;17.58;;;5.15;;
55489;SDS011;44029;52.956;4.772;2023-11-22T13:37:40;10.48;;;5.93;;
55489;SDS011;44029;52.956;4.772;2023-11-22T13:40:08;8.50;;;4.90;;
55489;SDS011;44029;52.956;4.772;2023-11-22T13:45:05;19.15;;;5.78;;
55489;SDS011;44029;52.956;4.772;2023-11-22T13:47:31;11.05;;;5.68;;
55489;SDS011;44029;52.956;4.772;2023-11-22T13:49:58;12.25;;;4.38;;
55489;SDS011;44029;52.956;4.772;2023-11-22T13:52:23;12.77;;;5.57;;
55489;SDS011;44029;52.956;4.772;2023-11-22T13:54:49;10.55;;;5.13;;
55489;SDS011;44029;52.956;4.772;2023-11-22T13:57:16;13.60;;;5.35;;
55489;SDS011;44029;52.956;4.772;2023-11-22T13:59:42;12.93;;;5.43;;
55489;SDS011;44029;52.956;4.772;2023-11-22T14:02:07;16.58;;;5.28;;
55489;SDS011;44029;52.956;4.772;2023-11-22T14:04:32;8.85;;;5.45;;
55489;SDS011;44029;52.956;4.772;2023-11-22T14:06:59;12.05;;;5.15;;
55489;SDS011;44029;52.956;4.772;2023-11-22T14:09:25;12.20;;;5.43;;
55489;SDS011;44029;52.956;4.772;2023-11-22T14:11:50;13.98;;;5.13;;
55489;SDS011;44029;52.956;4.772;2023-11-22T14:14:15;13.25;;;5.05;;
55489;SDS011;44029;52.956;4.772;2023-11-22T14:16:41;14.82;;;5.28;;
55489;SDS011;44029;52.956;4.772;2023-11-22T14:19:09;12.77;;;5.63;;
55489;SDS011;44029;52.956;4.772;2023-11-22T14:21:35;10.73;;;4.68;;
55489;SDS011;44029;52.956;4.772;2023-11-22T14:24:00;15.38;;;6.60;;
55489;SDS011;44029;52.956;4.772;2023-11-22T14:26:26;11.52;;;5.40;;
55489;SDS011;44029;52.956;4.772;2023-11-22T14:28:52;10.43;;;6.03;;
55489;SDS011;44029;52.956;4.772;2023-11-22T14:31:17;25.92;;;6.85;;
55489;SDS011;44029;52.956;4.772;2023-11-22T14:33:43;7.45;;;3.60;;
55489;SDS011;44029;52.956;4.772;2023-11-22T14:36:08;10.73;;;4.80;;
55489;SDS011;44029;52.956;4.772;2023-11-22T14:38:33;16.80;;;3.15;;
55489;SDS011;44029;52.956;4.772;2023-11-22T14:40:59;8.90;;;2.63;;
55489;SDS011;44029;52.956;4.772;2023-11-22T14:43:24;5.30;;;1.70;;
55489;SDS011;44029;52.956;4.772;2023-11-22T14:45:49;3.35;;;1.60;;
55489;SDS011;44029;52.956;4.772;2023-11-22T14:48:15;7.38;;;1.98;;
55489;SDS011;44029;52.956;4.772;2023-11-22T14:50:40;2.13;;;1.52;;
55489;SDS011;44029;52.956;4.772;2023-11-22T14:53:06;5.57;;;1.63;;
55489;SDS011;44029;52.956;4.772;2023-11-22T14:55:35;7.07;;;2.15;;